sensor_id;sensor_type;location;lat;lon;timestamp;pressure;altitude;pressure_sealevel;temperature;humidity
29935;BME280;19905;53.370;-6.314;2023-04-30T00:00:23;101498.84;;;13.44;100.00
29935;BME280;19905;53.370;-6.314;2023-04-30T00:02:52;101501.63;;;13.43;100.00
29935;BME280;19905;53.370;-6.314;2023-04-30T00:05:22;101498.13;;;13.42;100.00
29935;BME280;19905;53.370;-6.314;2023-04-30T00:07:51;101503.88;;;13.36;100.00
29935;BME280;19905;53.370;-6.314;2023-04-30T00:10:20;101503.59;;;13.28;100.00
29935;BME280;19905;53.370;-6.314;2023-04-30T00:12:49;101500.88;;;13.17;100.00
29935;BME280;19905;53.370;-6.314;2023-04-30T00:15:18;101501.94;;;13.14;100.00
29935;BME280;19905;53.370;-6.314;2023-04-30T00:17:48;101497.16;;;13.19;100.00
29935;BME280;19905;53.370;-6.314;2023-04-30T00:20:16;101499.41;;;13.13;100.00
29935;BME280;19905;53.370;-6.314;2023-04-30T00:22:45;101497.50;;;13.15;100.00
29935;BME280;19905;53.370;-6.314;2023-04-30T00:25:13;101493.41;;;13.11;100.00
29935;BME280;19905;53.370;-6.314;2023-04-30T00:27:42;101492.03;;;13.05;100.00
29935;BME280;19905;53.370;-6.314;2023-04-30T00:30:12;101486.34;;;12.98;100.00
29935;BME280;19905;53.370;-6.314;2023-04-30T00:32:40;101490.16;;;12.94;100.00
29935;BME280;19905;53.370;-6.314;2023-04-30T00:35:11;101488.69;;;12.90;100.00
29935;BME280;19905;53.370;-6.314;2023-04-30T00:37:39;101490.00;;;12.85;100.00
29935;BME280;19905;53.370;-6.314;2023-04-30T00:40:09;101489.66;;;12.89;100.00
29935;BME280;19905;53.370;-6.314;2023-04-30T00:42:39;101484.91;;;12.82;100.00
29935;BME280;19905;53.370;-6.314;2023-04-30T00:45:09;101480.91;;;12.76;100.00
29935;BME280;19905;53.370;-6.314;2023-04-30T00:47:38;101491.84;;;12.71;100.00
29935;BME280;19905;53.370;-6.314;2023-04-30T00:50:08;101504.06;;;12.74;100.00
29935;BME280;19905;53.370;-6.314;2023-04-30T00:52:38;101493.47;;;12.74;100.00
29935;BME280;19905;53.370;-6.314;2023-04-30T00:55:08;101496.66;;;12.66;100.00
29935;BME280;19905;53.370;-6.314;2023-04-30T00:57:37;101494.63;;;12.70;100.00
29935;BME280;19905;53.370;-6.314;2023-04-30T01:00:07;101492.06;;;12.68;100.00
29935;BME280;19905;53.370;-6.314;2023-04-30T01:02:37;101484.38;;;12.65;100.00
29935;BME280;19905;53.370;-6.314;2023-04-30T01:05:06;101484.88;;;12.70;100.00
29935;BME280;19905;53.370;-6.314;2023-04-30T01:07:38;101487.19;;;12.75;100.00
29935;BME280;19905;53.370;-6.314;2023-04-30T01:10:11;101479.44;;;12.72;100.00
29935;BME280;19905;53.370;-6.314;2023-04-30T01:12:47;101484.53;;;12.75;100.00
29935;BME280;19905;53.370;-6.314;2023-04-30T01:15:23;101478.16;;;12.78;100.00
29935;BME280;19905;53.370;-6.314;2023-04-30T01:17:55;101468.22;;;12.68;100.00
29935;BME280;19905;53.370;-6.314;2023-04-30T01:20:28;101466.66;;;12.66;100.00
29935;BME280;19905;53.370;-6.314;2023-04-30T01:23:07;101459.59;;;12.54;100.00
29935;BME280;19905;53.370;-6.314;2023-04-30T01:25:52;101465.97;;;12.51;100.00
29935;BME280;19905;53.370;-6.314;2023-04-30T01:28:34;101467.91;;;12.36;100.00
29935;BME280;19905;53.370;-6.314;2023-04-30T01:31:10;101464.53;;;12.34;100.00
29935;BME280;19905;53.370;-6.314;2023-04-30T01:33:41;101463.06;;;12.30;100.00
29935;BME280;19905;53.370;-6.314;2023-04-30T01:36:20;101465.19;;;12.25;100.00
29935;BME280;19905;53.370;-6.314;2023-04-30T01:39:20;101462.75;;;12.22;100.00
29935;BME280;19905;53.370;-6.314;2023-04-30T01:41:59;101460.94;;;12.23;100.00
29935;BME280;19905;53.370;-6.314;2023-04-30T01:44:42;101460.75;;;12.13;100.00
29935;BME280;19905;53.370;-6.314;2023-04-30T01:47:22;101455.56;;;12.24;100.00
29935;BME280;19905;53.370;-6.314;2023-04-30T01:49:58;101454.28;;;12.17;100.00
29935;BME280;19905;53.370;-6.314;2023-04-30T01:52:45;101461.19;;;12.19;100.00
29935;BME280;19905;53.370;-6.314;2023-04-30T01:55:20;101460.34;;;12.19;100.00
29935;BME280;19905;53.370;-6.314;2023-04-30T01:57:59;101458.84;;;12.15;100.00
29935;BME280;19905;53.370;-6.314;2023-04-30T02:00:29;101453.13;;;12.21;100.00
29935;BME280;19905;53.370;-6.314;2023-04-30T02:02:58;101455.75;;;12.21;100.00
29935;BME280;19905;53.370;-6.314;2023-04-30T02:05:28;101451.31;;;12.21;100.00
29935;BME280;19905;53.370;-6.314;2023-04-30T02:07:58;101442.31;;;12.24;100.00
29935;BME280;19905;53.370;-6.314;2023-04-30T02:10:27;101434.78;;;12.18;100.00
29935;BME280;19905;53.370;-6.314;2023-04-30T02:12:57;101428.56;;;12.06;100.00
29935;BME280;19905;53.370;-6.314;2023-04-30T02:15:26;101440.66;;;12.10;100.00
29935;BME280;19905;53.370;-6.314;2023-04-30T02:17:56;101431.94;;;12.21;100.00
29935;BME280;19905;53.370;-6.314;2023-04-30T02:20:24;101423.03;;;12.09;100.00
29935;BME280;19905;53.370;-6.314;2023-04-30T02:22:53;101427.47;;;12.21;100.00
29935;BME280;19905;53.370;-6.314;2023-04-30T02:25:28;101424.69;;;12.23;100.00
29935;BME280;19905;53.370;-6.314;2023-04-30T02:27:59;101415.84;;;12.11;100.00
29935;BME280;19905;53.370;-6.314;2023-04-30T02:30:28;101414.44;;;12.18;100.00
29935;BME280;19905;53.370;-6.314;2023-04-30T02:32:58;101421.16;;;12.11;100.00
29935;BME280;19905;53.370;-6.314;2023-04-30T02:35:27;101415.06;;;12.22;100.00
29935;BME280;19905;53.370;-6.314;2023-04-30T02:37:56;101418.81;;;12.19;100.00
29935;BME280;19905;53.370;-6.314;2023-04-30T02:40:26;101409.41;;;12.03;100.00
29935;BME280;19905;53.370;-6.314;2023-04-30T02:42:57;101414.25;;;12.09;100.00
29935;BME280;19905;53.370;-6.314;2023-04-30T02:45:27;101406.81;;;12.14;100.00
29935;BME280;19905;53.370;-6.314;2023-04-30T02:47:58;101409.06;;;12.07;100.00
29935;BME280;19905;53.370;-6.314;2023-04-30T02:50:27;101400.44;;;11.92;100.00
29935;BME280;19905;53.370;-6.314;2023-04-30T02:52:55;101405.22;;;11.87;100.00
29935;BME280;19905;53.370;-6.314;2023-04-30T02:55:24;101398.31;;;11.85;100.00
29935;BME280;19905;53.370;-6.314;2023-04-30T02:57:53;101402.56;;;11.87;100.00
29935;BME280;19905;53.370;-6.314;2023-04-30T03:00:22;101397.13;;;11.76;100.00
29935;BME280;19905;53.370;-6.314;2023-04-30T03:02:50;101400.94;;;11.72;100.00
29935;BME280;19905;53.370;-6.314;2023-04-30T03:05:22;101407.19;;;11.58;100.00
29935;BME280;19905;53.370;-6.314;2023-04-30T03:07:51;101409.84;;;11.58;100.00
29935;BME280;19905;53.370;-6.314;2023-04-30T03:10:19;101408.47;;;11.53;100.00
29935;BME280;19905;53.370;-6.314;2023-04-30T03:12:48;101412.59;;;11.57;100.00
29935;BME280;19905;53.370;-6.314;2023-04-30T03:15:16;101413.34;;;11.59;100.00
29935;BME280;19905;53.370;-6.314;2023-04-30T03:17:45;101417.78;;;11.58;100.00
29935;BME280;19905;53.370;-6.314;2023-04-30T03:20:13;101409.97;;;11.57;100.00
29935;BME280;19905;53.370;-6.314;2023-04-30T03:22:43;101414.53;;;11.55;100.00
29935;BME280;19905;53.370;-6.314;2023-04-30T03:25:11;101415.06;;;11.60;100.00
29935;BME280;19905;53.370;-6.314;2023-04-30T03:27:40;101416.53;;;11.64;100.00
29935;BME280;19905;53.370;-6.314;2023-04-30T03:30:10;101410.38;;;11.63;100.00
29935;BME280;19905;53.370;-6.314;2023-04-30T03:32:38;101415.06;;;11.60;100.00
29935;BME280;19905;53.370;-6.314;2023-04-30T03:35:08;101415.06;;;11.60;100.00
29935;BME280;19905;53.370;-6.314;2023-04-30T03:37:37;101416.09;;;11.57;100.00
29935;BME280;19905;53.370;-6.314;2023-04-30T03:40:09;101412.28;;;11.49;100.00
29935;BME280;19905;53.370;-6.314;2023-04-30T03:42:38;101410.28;;;11.52;100.00
29935;BME280;19905;53.370;-6.314;2023-04-30T03:45:08;101411.56;;;11.47;100.00
29935;BME280;19905;53.370;-6.314;2023-04-30T03:47:36;101409.25;;;11.55;100.00
29935;BME280;19905;53.370;-6.314;2023-04-30T03:50:07;101405.00;;;11.65;100.00
29935;BME280;19905;53.370;-6.314;2023-04-30T03:52:36;101398.84;;;11.64;100.00
29935;BME280;19905;53.370;-6.314;2023-04-30T03:55:05;101395.13;;;11.67;100.00
29935;BME280;19905;53.370;-6.314;2023-04-30T03:57:36;101399.25;;;11.71;100.00
29935;BME280;19905;53.370;-6.314;2023-04-30T04:00:08;101399.06;;;11.74;100.00
29935;BME280;19905;53.370;-6.314;2023-04-30T04:02:37;101389.19;;;11.76;100.00
29935;BME280;19905;53.370;-6.314;2023-04-30T04:05:06;101392.78;;;11.75;100.00
29935;BME280;19905;53.370;-6.314;2023-04-30T04:07:34;101395.13;;;11.80;100.00
29935;BME280;19905;53.370;-6.314;2023-04-30T04:10:03;101396.75;;;11.82;100.00
29935;BME280;19905;53.370;-6.314;2023-04-30T04:12:32;101390.56;;;11.82;100.00
29935;BME280;19905;53.370;-6.314;2023-04-30T04:15:04;101389.81;;;11.80;100.00
29935;BME280;19905;53.370;-6.314;2023-04-30T04:17:33;101381.88;;;11.80;100.00
29935;BME280;19905;53.370;-6.314;2023-04-30T04:20:01;101398.09;;;11.88;100.00
29935;BME280;19905;53.370;-6.314;2023-04-30T04:22:32;101389.94;;;11.91;100.00
29935;BME280;19905;53.370;-6.314;2023-04-30T04:25:02;101384.53;;;11.92;100.00
29935;BME280;19905;53.370;-6.314;2023-04-30T04:27:30;101386.22;;;11.93;100.00
29935;BME280;19905;53.370;-6.314;2023-04-30T04:29:59;101389.09;;;11.90;100.00
29935;BME280;19905;53.370;-6.314;2023-04-30T04:32:29;101386.88;;;11.97;100.00
29935;BME280;19905;53.370;-6.314;2023-04-30T04:34:59;101383.38;;;11.97;100.00
29935;BME280;19905;53.370;-6.314;2023-04-30T04:37:27;101387.72;;;11.98;100.00
29935;BME280;19905;53.370;-6.314;2023-04-30T04:39:58;101381.97;;;12.04;100.00
29935;BME280;19905;53.370;-6.314;2023-04-30T04:42:26;101377.75;;;12.01;100.00
29935;BME280;19905;53.370;-6.314;2023-04-30T04:44:55;101378.59;;;12.02;100.00
29935;BME280;19905;53.370;-6.314;2023-04-30T04:47:23;101380.06;;;12.06;100.00
29935;BME280;19905;53.370;-6.314;2023-04-30T04:49:54;101373.81;;;12.07;100.00
29935;BME280;19905;53.370;-6.314;2023-04-30T04:52:23;101373.81;;;12.07;100.00
29935;BME280;19905;53.370;-6.314;2023-04-30T04:54:52;101370.94;;;12.10;100.00
29935;BME280;19905;53.370;-6.314;2023-04-30T04:57:20;101378.78;;;12.11;100.00
29935;BME280;19905;53.370;-6.314;2023-04-30T04:59:49;101364.78;;;12.09;100.00
29935;BME280;19905;53.370;-6.314;2023-04-30T05:02:18;101369.34;;;12.07;100.00
29935;BME280;19905;53.370;-6.314;2023-04-30T05:04:47;101370.41;;;12.05;100.00
29935;BME280;19905;53.370;-6.314;2023-04-30T05:07:18;101368.72;;;12.04;100.00
29935;BME280;19905;53.370;-6.314;2023-04-30T05:09:47;101363.75;;;11.99;100.00
29935;BME280;19905;53.370;-6.314;2023-04-30T05:12:15;101363.88;;;11.98;100.00
29935;BME280;19905;53.370;-6.314;2023-04-30T05:14:44;101364.50;;;12.01;100.00
29935;BME280;19905;53.370;-6.314;2023-04-30T05:17:13;101366.41;;;11.99;100.00
29935;BME280;19905;53.370;-6.314;2023-04-30T05:19:42;101368.97;;;12.01;100.00
29935;BME280;19905;53.370;-6.314;2023-04-30T05:22:13;101369.81;;;12.01;100.00
29935;BME280;19905;53.370;-6.314;2023-04-30T05:24:44;101374.53;;;12.09;100.00
29935;BME280;19905;53.370;-6.314;2023-04-30T05:27:13;101365.91;;;11.94;100.00
29935;BME280;19905;53.370;-6.314;2023-04-30T05:29:42;101357.03;;;11.82;100.00
29935;BME280;19905;53.370;-6.314;2023-04-30T05:32:11;101355.13;;;11.84;100.00
29935;BME280;19905;53.370;-6.314;2023-04-30T05:34:40;101355.28;;;11.81;100.00
29935;BME280;19905;53.370;-6.314;2023-04-30T05:37:09;101350.47;;;11.88;100.00
29935;BME280;19905;53.370;-6.314;2023-04-30T05:39:39;101353.44;;;11.83;100.00
29935;BME280;19905;53.370;-6.314;2023-04-30T05:42:10;101355.41;;;11.80;100.00
29935;BME280;19905;53.370;-6.314;2023-04-30T05:44:39;101351.94;;;11.79;100.00
29935;BME280;19905;53.370;-6.314;2023-04-30T05:47:08;101352.78;;;11.80;100.00
29935;BME280;19905;53.370;-6.314;2023-04-30T05:49:39;101356.81;;;11.85;100.00
29935;BME280;19905;53.370;-6.314;2023-04-30T05:52:08;101360.59;;;11.81;100.00
29935;BME280;19905;53.370;-6.314;2023-04-30T05:54:38;101358.06;;;11.80;100.00
29935;BME280;19905;53.370;-6.314;2023-04-30T05:57:07;101352.97;;;11.77;100.00
29935;BME280;19905;53.370;-6.314;2023-04-30T05:59:37;101353.50;;;11.82;100.00
29935;BME280;19905;53.370;-6.314;2023-04-30T06:02:06;101354.47;;;11.93;100.00
29935;BME280;19905;53.370;-6.314;2023-04-30T06:04:36;101353.91;;;12.01;100.00
29935;BME280;19905;53.370;-6.314;2023-04-30T06:07:04;101351.94;;;11.79;100.00
29935;BME280;19905;53.370;-6.314;2023-04-30T06:09:33;101351.94;;;11.66;100.00
29935;BME280;19905;53.370;-6.314;2023-04-30T06:12:01;101352.38;;;11.73;100.00
29935;BME280;19905;53.370;-6.314;2023-04-30T06:14:30;101347.94;;;11.74;100.00
29935;BME280;19905;53.370;-6.314;2023-04-30T06:17:00;101349.59;;;11.75;100.00
29935;BME280;19905;53.370;-6.314;2023-04-30T06:19:29;101356.59;;;11.76;100.00
29935;BME280;19905;53.370;-6.314;2023-04-30T06:21:57;101355.41;;;11.80;100.00
29935;BME280;19905;53.370;-6.314;2023-04-30T06:24:27;101358.19;;;11.78;100.00
29935;BME280;19905;53.370;-6.314;2023-04-30T06:26:56;101366.72;;;11.82;100.00
29935;BME280;19905;53.370;-6.314;2023-04-30T06:29:26;101364.88;;;11.84;100.00
29935;BME280;19905;53.370;-6.314;2023-04-30T06:31:56;101367.19;;;11.88;100.00
29935;BME280;19905;53.370;-6.314;2023-04-30T06:34:27;101363.38;;;11.92;100.00
29935;BME280;19905;53.370;-6.314;2023-04-30T06:36:55;101371.38;;;12.04;100.00
29935;BME280;19905;53.370;-6.314;2023-04-30T06:39:24;101370.75;;;12.00;100.00
29935;BME280;19905;53.370;-6.314;2023-04-30T06:41:52;101374.16;;;11.89;100.00
29935;BME280;19905;53.370;-6.314;2023-04-30T06:44:21;101372.03;;;11.94;100.00
29935;BME280;19905;53.370;-6.314;2023-04-30T06:46:50;101375.44;;;11.97;100.00
29935;BME280;19905;53.370;-6.314;2023-04-30T06:49:20;101372.28;;;11.91;100.00
29935;BME280;19905;53.370;-6.314;2023-04-30T06:51:50;101377.97;;;11.98;100.00
29935;BME280;19905;53.370;-6.314;2023-04-30T06:54:19;101381.00;;;12.05;100.00
29935;BME280;19905;53.370;-6.314;2023-04-30T06:56:48;101381.63;;;12.08;100.00
29935;BME280;19905;53.370;-6.314;2023-04-30T06:59:17;101375.50;;;12.08;100.00
29935;BME280;19905;53.370;-6.314;2023-04-30T07:01:45;101376.78;;;12.02;100.00
29935;BME280;19905;53.370;-6.314;2023-04-30T07:04:14;101379.78;;;12.21;100.00
29935;BME280;19905;53.370;-6.314;2023-04-30T07:06:43;101380.13;;;12.17;100.00
29935;BME280;19905;53.370;-6.314;2023-04-30T07:09:13;101377.69;;;12.14;100.00
29935;BME280;19905;53.370;-6.314;2023-04-30T07:11:43;101377.34;;;12.18;100.00
29935;BME280;19905;53.370;-6.314;2023-04-30T07:14:12;101372.34;;;12.27;100.00
29935;BME280;19905;53.370;-6.314;2023-04-30T07:16:41;101371.31;;;12.29;100.00
29935;BME280;19905;53.370;-6.314;2023-04-30T07:19:11;101371.59;;;12.37;100.00
29935;BME280;19905;53.370;-6.314;2023-04-30T07:21:40;101367.63;;;12.43;100.00
29935;BME280;19905;53.370;-6.314;2023-04-30T07:24:10;101363.06;;;12.45;100.00
29935;BME280;19905;53.370;-6.314;2023-04-30T07:26:40;101366.00;;;12.53;100.00
29935;BME280;19905;53.370;-6.314;2023-04-30T07:29:08;101371.28;;;12.53;100.00
29935;BME280;19905;53.370;-6.314;2023-04-30T07:31:37;101369.50;;;12.54;100.00
29935;BME280;19905;53.370;-6.314;2023-04-30T07:34:06;101377.94;;;12.59;100.00
29935;BME280;19905;53.370;-6.314;2023-04-30T07:36:34;101361.19;;;12.58;100.00
29935;BME280;19905;53.370;-6.314;2023-04-30T07:39:04;101367.34;;;12.59;100.00
29935;BME280;19905;53.370;-6.314;2023-04-30T07:41:34;101367.28;;;12.71;100.00
29935;BME280;19905;53.370;-6.314;2023-04-30T07:44:04;101373.91;;;12.77;100.00
29935;BME280;19905;53.370;-6.314;2023-04-30T07:46:33;101370.69;;;12.85;100.00
29935;BME280;19905;53.370;-6.314;2023-04-30T07:49:03;101362.75;;;12.96;100.00
29935;BME280;19905;53.370;-6.314;2023-04-30T07:51:33;101365.66;;;12.93;100.00
29935;BME280;19905;53.370;-6.314;2023-04-30T07:54:01;101363.38;;;13.00;100.00
29935;BME280;19905;53.370;-6.314;2023-04-30T07:56:31;101375.78;;;12.99;100.00
29935;BME280;19905;53.370;-6.314;2023-04-30T07:59:00;101371.34;;;13.00;100.00
29935;BME280;19905;53.370;-6.314;2023-04-30T08:01:30;101351.44;;;12.94;100.00
29935;BME280;19905;53.370;-6.314;2023-04-30T08:03:59;101360.03;;;13.09;100.00
29935;BME280;19905;53.370;-6.314;2023-04-30T08:06:30;101359.94;;;13.21;100.00
29935;BME280;19905;53.370;-6.314;2023-04-30T08:08:59;101362.75;;;13.31;100.00
29935;BME280;19905;53.370;-6.314;2023-04-30T08:11:28;101348.38;;;13.22;100.00
29935;BME280;19905;53.370;-6.314;2023-04-30T08:13:59;101352.63;;;13.25;100.00
29935;BME280;19905;53.370;-6.314;2023-04-30T08:16:27;101342.97;;;13.24;100.00
29935;BME280;19905;53.370;-6.314;2023-04-30T08:19:00;101354.97;;;13.17;100.00
29935;BME280;19905;53.370;-6.314;2023-04-30T08:21:30;101352.09;;;13.20;100.00
29935;BME280;19905;53.370;-6.314;2023-04-30T08:24:01;101354.78;;;13.31;100.00
29935;BME280;19905;53.370;-6.314;2023-04-30T08:26:29;101355.88;;;13.29;100.00
29935;BME280;19905;53.370;-6.314;2023-04-30T08:28:58;101353.34;;;13.27;100.00
29935;BME280;19905;53.370;-6.314;2023-04-30T08:31:27;101350.69;;;13.27;100.00
29935;BME280;19905;53.370;-6.314;2023-04-30T08:33:55;101341.91;;;13.38;100.00
29935;BME280;19905;53.370;-6.314;2023-04-30T08:36:26;101345.03;;;13.54;100.00
29935;BME280;19905;53.370;-6.314;2023-04-30T08:38:54;101342.38;;;13.65;100.00
29935;BME280;19905;53.370;-6.314;2023-04-30T08:41:25;101341.28;;;13.68;100.00
29935;BME280;19905;53.370;-6.314;2023-04-30T08:43:55;101337.53;;;13.82;100.00
29935;BME280;19905;53.370;-6.314;2023-04-30T08:46:30;101338.97;;;13.86;100.00
29935;BME280;19905;53.370;-6.314;2023-04-30T08:48:59;101332.19;;;14.04;100.00
29935;BME280;19905;53.370;-6.314;2023-04-30T08:51:32;101331.66;;;14.10;100.00
29935;BME280;19905;53.370;-6.314;2023-04-30T08:54:01;101321.03;;;14.10;100.00
29935;BME280;19905;53.370;-6.314;2023-04-30T08:56:30;101331.56;;;14.01;100.00
29935;BME280;19905;53.370;-6.314;2023-04-30T08:59:00;101317.50;;;13.89;100.00
29935;BME280;19905;53.370;-6.314;2023-04-30T09:01:29;101323.38;;;13.92;100.00
29935;BME280;19905;53.370;-6.314;2023-04-30T09:03:58;101313.50;;;13.83;100.00
29935;BME280;19905;53.370;-6.314;2023-04-30T09:06:26;101313.75;;;13.69;100.00
29935;BME280;19905;53.370;-6.314;2023-04-30T09:09:08;101327.31;;;13.66;100.00
29935;BME280;19905;53.370;-6.314;2023-04-30T09:11:38;101321.25;;;13.75;100.00
29935;BME280;19905;53.370;-6.314;2023-04-30T09:14:09;101331.00;;;13.86;100.00
29935;BME280;19905;53.370;-6.314;2023-04-30T09:16:46;101320.59;;;14.05;100.00
29935;BME280;19905;53.370;-6.314;2023-04-30T09:19:25;101319.16;;;14.33;100.00
29935;BME280;19905;53.370;-6.314;2023-04-30T09:21:55;101310.56;;;14.41;100.00
29935;BME280;19905;53.370;-6.314;2023-04-30T09:24:25;101300.63;;;14.22;100.00
29935;BME280;19905;53.370;-6.314;2023-04-30T09:26:54;101303.50;;;14.30;100.00
29935;BME280;19905;53.370;-6.314;2023-04-30T09:29:35;101295.16;;;14.56;100.00
29935;BME280;19905;53.370;-6.314;2023-04-30T09:32:09;101281.47;;;15.02;100.00
29935;BME280;19905;53.370;-6.314;2023-04-30T09:34:39;101289.56;;;15.21;100.00
29935;BME280;19905;53.370;-6.314;2023-04-30T09:37:09;101280.88;;;15.60;100.00
29935;BME280;19905;53.370;-6.314;2023-04-30T09:39:52;101275.34;;;15.72;100.00
29935;BME280;19905;53.370;-6.314;2023-04-30T09:42:21;101279.59;;;15.94;100.00
29935;BME280;19905;53.370;-6.314;2023-04-30T09:44:52;101262.47;;;16.07;100.00
29935;BME280;19905;53.370;-6.314;2023-04-30T09:47:21;101267.38;;;16.21;100.00
29935;BME280;19905;53.370;-6.314;2023-04-30T09:49:50;101266.13;;;15.96;100.00
29935;BME280;19905;53.370;-6.314;2023-04-30T09:52:20;101275.91;;;15.76;100.00
29935;BME280;19905;53.370;-6.314;2023-04-30T09:54:50;101288.47;;;15.34;100.00
29935;BME280;19905;53.370;-6.314;2023-04-30T09:57:22;101290.22;;;15.14;100.00
29935;BME280;19905;53.370;-6.314;2023-04-30T09:59:53;101286.50;;;14.95;100.00
29935;BME280;19905;53.370;-6.314;2023-04-30T10:02:25;101295.91;;;14.99;100.00
29935;BME280;19905;53.370;-6.314;2023-04-30T10:04:55;101282.91;;;15.37;100.00
29935;BME280;19905;53.370;-6.314;2023-04-30T10:07:32;101278.53;;;15.66;100.00
29935;BME280;19905;53.370;-6.314;2023-04-30T10:10:08;101274.53;;;16.30;100.00
29935;BME280;19905;53.370;-6.314;2023-04-30T10:12:42;101262.09;;;16.40;100.00
29935;BME280;19905;53.370;-6.314;2023-04-30T10:15:14;101271.88;;;16.30;100.00
29935;BME280;19905;53.370;-6.314;2023-04-30T10:17:46;101263.47;;;15.96;100.00
29935;BME280;19905;53.370;-6.314;2023-04-30T10:20:18;101274.53;;;15.82;100.00
29935;BME280;19905;53.370;-6.314;2023-04-30T10:22:49;101288.59;;;15.63;100.00
29935;BME280;19905;53.370;-6.314;2023-04-30T10:25:20;101281.66;;;15.41;100.00
29935;BME280;19905;53.370;-6.314;2023-04-30T10:27:49;101289.75;;;15.39;100.00
29935;BME280;19905;53.370;-6.314;2023-04-30T10:30:21;101290.06;;;15.67;100.00
29935;BME280;19905;53.370;-6.314;2023-04-30T10:32:54;101280.72;;;16.01;100.00
29935;BME280;19905;53.370;-6.314;2023-04-30T10:35:29;101272.84;;;16.48;100.00
29935;BME280;19905;53.370;-6.314;2023-04-30T10:38:06;101262.88;;;16.60;100.00
29935;BME280;19905;53.370;-6.314;2023-04-30T10:40:39;101258.53;;;16.79;100.00
29935;BME280;19905;53.370;-6.314;2023-04-30T10:43:10;101257.34;;;17.00;100.00
29935;BME280;19905;53.370;-6.314;2023-04-30T10:45:42;101244.66;;;17.12;100.00
29935;BME280;19905;53.370;-6.314;2023-04-30T10:48:14;101244.59;;;17.22;100.00
29935;BME280;19905;53.370;-6.314;2023-04-30T10:50:50;101236.09;;;17.09;100.00
29935;BME280;19905;53.370;-6.314;2023-04-30T10:53:20;101243.53;;;16.48;100.00
29935;BME280;19905;53.370;-6.314;2023-04-30T10:55:57;101229.84;;;16.90;100.00
29935;BME280;19905;53.370;-6.314;2023-04-30T10:58:29;101233.88;;;17.59;100.00
29935;BME280;19905;53.370;-6.314;2023-04-30T11:01:01;101217.69;;;18.06;100.00
29935;BME280;19905;53.370;-6.314;2023-04-30T11:03:32;101210.34;;;18.26;100.00
29935;BME280;19905;53.370;-6.314;2023-04-30T11:06:07;101201.84;;;18.74;100.00
29935;BME280;19905;53.370;-6.314;2023-04-30T11:08:37;101194.78;;;18.47;100.00
29935;BME280;19905;53.370;-6.314;2023-04-30T11:11:08;101193.44;;;18.25;100.00
29935;BME280;19905;53.370;-6.314;2023-04-30T11:13:43;101195.81;;;18.54;100.00
29935;BME280;19905;53.370;-6.314;2023-04-30T11:16:14;101186.34;;;18.34;100.00
29935;BME280;19905;53.370;-6.314;2023-04-30T11:18:44;101183.38;;;18.19;100.00
29935;BME280;19905;53.370;-6.314;2023-04-30T11:21:13;101191.25;;;18.03;100.00
29935;BME280;19905;53.370;-6.314;2023-04-30T11:23:42;101195.88;;;18.19;100.00
29935;BME280;19905;53.370;-6.314;2023-04-30T11:26:12;101182.31;;;18.82;100.00
29935;BME280;19905;53.370;-6.314;2023-04-30T11:28:49;101170.75;;;19.16;100.00
29935;BME280;19905;53.370;-6.314;2023-04-30T11:31:20;101172.59;;;18.81;100.00
29935;BME280;19905;53.370;-6.314;2023-04-30T11:33:50;101172.03;;;18.43;100.00
29935;BME280;19905;53.370;-6.314;2023-04-30T11:36:19;101162.25;;;18.34;100.00
29935;BME280;19905;53.370;-6.314;2023-04-30T11:38:51;101171.63;;;18.12;100.00
29935;BME280;19905;53.370;-6.314;2023-04-30T11:41:22;101176.59;;;17.89;100.00
29935;BME280;19905;53.370;-6.314;2023-04-30T11:43:53;101181.84;;;17.36;100.00
29935;BME280;19905;53.370;-6.314;2023-04-30T11:46:22;101182.19;;;17.05;100.00
29935;BME280;19905;53.370;-6.314;2023-04-30T11:48:50;101178.47;;;16.88;100.00
29935;BME280;19905;53.370;-6.314;2023-04-30T11:51:20;101192.81;;;16.58;100.00
29935;BME280;19905;53.370;-6.314;2023-04-30T11:53:51;101216.75;;;15.92;100.00
29935;BME280;19905;53.370;-6.314;2023-04-30T11:56:24;101231.72;;;15.64;100.00
29935;BME280;19905;53.370;-6.314;2023-04-30T11:58:53;101229.44;;;15.59;100.00
29935;BME280;19905;53.370;-6.314;2023-04-30T12:01:26;101228.53;;;15.89;100.00
29935;BME280;19905;53.370;-6.314;2023-04-30T12:03:55;101221.09;;;16.32;100.00
29935;BME280;19905;53.370;-6.314;2023-04-30T12:06:26;101210.28;;;16.43;100.00
29935;BME280;19905;53.370;-6.314;2023-04-30T12:08:56;101236.69;;;16.36;100.00
29935;BME280;19905;53.370;-6.314;2023-04-30T12:11:30;101229.09;;;16.12;100.00
29935;BME280;19905;53.370;-6.314;2023-04-30T12:14:01;101213.25;;;15.91;100.00
29935;BME280;19905;53.370;-6.314;2023-04-30T12:16:39;101221.53;;;15.88;100.00
29935;BME280;19905;53.370;-6.314;2023-04-30T12:19:08;101225.16;;;15.78;100.00
29935;BME280;19905;53.370;-6.314;2023-04-30T12:21:41;101211.78;;;15.58;100.00
29935;BME280;19905;53.370;-6.314;2023-04-30T12:24:10;101204.13;;;15.65;100.00
29935;BME280;19905;53.370;-6.314;2023-04-30T12:26:43;101200.34;;;15.67;100.00
29935;BME280;19905;53.370;-6.314;2023-04-30T12:29:17;101205.09;;;15.73;100.00
29935;BME280;19905;53.370;-6.314;2023-04-30T12:31:48;101194.47;;;15.83;100.00
29935;BME280;19905;53.370;-6.314;2023-04-30T12:34:17;101205.25;;;15.82;100.00
29935;BME280;19905;53.370;-6.314;2023-04-30T12:36:47;101193.50;;;16.04;100.00
29935;BME280;19905;53.370;-6.314;2023-04-30T12:39:18;101191.22;;;16.28;100.00
29935;BME280;19905;53.370;-6.314;2023-04-30T12:41:51;101174.44;;;16.65;100.00
29935;BME280;19905;53.370;-6.314;2023-04-30T12:44:21;101165.63;;;17.29;100.00
29935;BME280;19905;53.370;-6.314;2023-04-30T12:46:53;101159.31;;;17.48;100.00